Sainte-Martine, Canada
Current Conditions -  °F | °C
As of 11:00 AM on Tuesday 21 Oct 2014 (Local Time) from CYUL Reporting Station
Overcast Overcast  
Wind Chill: 35°   Ceiling: 3000
Heat Index: 43°   Visibility: 15mi
Dew Point: 37°   Wind: 16mph
Humidity: 81%   Direction: 20°NNE
Pressure: 30.03"   Gusts: 23mph
Location:  45.23°N, 73.8°W
Report Text: CYUL 211500Z 02014G20KT 15SM OVC030 06/03 A3003 RMK SC8 SLP170
Loading
Personal Weather Stations






























Interactive Weather Map
Tropical Storm Tracking
New forecast layout! Learn more

10-Day Weather Forecast

Advertisements
Track Severe Weather on mobile